Palmers Lookout, Australia
Current Conditions -  °F | °C
As of 1:00 AM on Sunday 26 Oct 2014 (Local Time) from YMHB Reporting Station
Broken Clouds Broken Clouds  
Wind Chill: 50°   Ceiling: 5200
Heat Index: 50°   Visibility: 6mi
Dew Point: 48°   Wind: 3mph
Humidity: 94%   Direction: 80°E
Pressure: 30.03"   Gusts: NA
Location:  43.17°S, 147.83°E
Report Text: YMHB 251400Z 08003KT 9999 FEW015 BKN052 10/09 Q1017
Loading
Personal Weather Stations






























Interactive Weather Map
Tropical Storm Tracking
New forecast layout! Learn more

10-Day Weather Forecast

Advertisements
Track Severe Weather on mobile